createdAt,value
2022-09-27T17:32:46.521Z,96468.81
2022-09-27T17:35:14.989Z,96480.81
2022-09-27T17:37:44.222Z,96484.28
2022-09-27T17:40:12.783Z,96489.91
2022-09-27T17:42:41.397Z,96477.13
2022-09-27T17:45:11.489Z,96489.78
2022-09-27T17:47:57.374Z,96484.34
2022-09-27T17:50:29.065Z,96483.47
2022-09-27T17:52:58.905Z,96480.81
2022-09-27T17:55:27.635Z,96491.91
2022-09-27T17:57:56.745Z,96491.22
2022-09-27T18:00:25.630Z,96492.19
2022-09-27T18:02:54.416Z,96493.25
2022-09-27T18:05:22.708Z,96499.38
2022-09-27T18:07:52.528Z,96491.41
2022-09-27T18:10:21.353Z,96496.00
2022-09-27T18:12:50.830Z,96493.38
2022-09-27T18:15:20.757Z,96499.09
2022-09-27T18:17:55.928Z,96498.84
2022-09-27T18:20:26.842Z,96473.44
2022-09-27T18:22:57.739Z,96492.78
2022-09-27T18:25:26.362Z,96507.50
2022-09-27T18:27:56.277Z,96505.63
2022-09-27T18:30:24.735Z,96511.09
2022-09-27T18:32:54.054Z,96515.53
2022-09-27T18:35:24.632Z,96514.28
2022-09-27T18:37:53.598Z,96516.66
2022-09-27T18:40:38.349Z,96521.00
2022-09-27T18:43:12.334Z,96507.28
2022-09-27T18:45:41.175Z,96524.03
2022-09-27T18:48:10.020Z,96522.00
2022-09-27T18:50:39.223Z,96517.41
2022-09-27T18:53:09.806Z,96519.09
2022-09-27T18:55:41.961Z,96526.00
2022-09-27T18:58:14.559Z,96510.25
2022-09-27T19:00:44.155Z,96521.81
2022-09-27T19:03:15.006Z,96528.75
2022-09-27T19:05:43.781Z,96518.56
2022-09-27T19:08:12.892Z,96510.38
2022-09-27T19:10:42.903Z,96489.66
2022-09-27T19:13:11.852Z,96520.53
2022-09-27T19:15:41.556Z,96522.41
2022-09-27T19:18:10.523Z,96515.56
2022-09-27T19:20:39.404Z,96523.31
2022-09-27T19:23:08.456Z,96520.19
2022-09-27T19:25:40.577Z,96532.03
2022-09-27T19:28:12.434Z,96527.34
2022-09-27T19:30:42.050Z,96530.09
2022-09-27T19:33:10.938Z,96525.78
2022-09-27T19:35:39.542Z,96520.41
2022-09-27T19:38:08.081Z,96530.63
2022-09-27T19:40:36.967Z,96530.41
2022-09-27T19:43:05.769Z,96539.50
2022-09-27T19:45:36.661Z,96525.72
2022-09-27T19:48:05.449Z,96534.00
2022-09-27T19:50:33.984Z,96524.06
2022-09-27T19:53:02.424Z,96526.94
2022-09-27T19:55:31.178Z,96543.47
2022-09-27T19:58:00.236Z,96545.44
2022-09-27T20:00:28.341Z,96541.75
2022-09-27T20:02:58.408Z,96548.81
2022-09-27T20:05:27.153Z,96543.81
2022-09-27T20:07:55.579Z,96546.38
2022-09-27T20:10:24.365Z,96546.41
2022-09-27T20:12:54.298Z,96559.09
2022-09-27T20:15:23.041Z,96558.50
2022-09-27T20:17:51.841Z,96555.06
2022-09-27T20:20:22.401Z,96554.53
2022-09-27T20:22:51.002Z,96561.34
2022-09-27T20:25:19.697Z,96550.38
2022-09-27T20:27:48.233Z,96562.47
2022-09-27T20:30:16.772Z,96555.06
2022-09-27T20:33:05.472Z,96557.75
2022-09-27T20:35:35.587Z,96547.09
2022-09-27T20:38:03.873Z,96553.31
2022-09-27T20:40:32.625Z,96545.78
2022-09-27T20:43:01.048Z,96548.41
2022-09-27T20:45:29.939Z,96546.44
2022-09-27T20:47:58.483Z,96552.34
2022-09-27T20:50:27.718Z,96552.59
2022-09-27T20:52:59.027Z,96549.25
2022-09-27T20:55:28.337Z,96544.69
2022-09-27T20:57:58.193Z,96541.44
2022-09-27T21:00:26.795Z,96538.53
2022-09-27T21:02:55.330Z,96544.13
2022-09-27T21:05:23.757Z,96539.25
2022-09-27T21:07:55.520Z,96531.88
2022-09-27T21:10:25.484Z,96542.06
2022-09-27T21:12:54.132Z,96540.44
2022-09-27T21:15:22.421Z,96538.78
2022-09-27T21:17:52.853Z,96530.97
2022-09-27T21:20:21.681Z,96532.81
2022-09-27T21:22:50.210Z,96541.09
2022-09-27T21:25:19.273Z,96536.81
2022-09-27T21:27:49.360Z,96538.63
2022-09-27T21:30:17.666Z,96523.97
2022-09-27T21:32:46.671Z,96545.81
2022-09-27T21:35:15.310Z,96541.41
2022-09-27T21:37:44.106Z,96545.53
2022-09-27T21:40:12.746Z,96542.94
2022-09-27T21:42:41.097Z,96537.00
2022-09-27T21:45:12.036Z,96541.69
2022-09-27T21:47:40.319Z,96540.44
2022-09-27T21:50:09.609Z,96535.75
2022-09-27T21:52:38.087Z,96509.00
2022-09-27T21:55:07.506Z,96528.00
2022-09-27T21:57:36.089Z,96520.50
2022-09-27T22:00:06.010Z,96508.91
2022-09-27T22:02:36.644Z,96522.59
2022-09-27T22:05:05.708Z,96528.19
2022-09-27T22:07:34.148Z,96525.63
2022-09-27T22:10:02.712Z,96517.66
2022-09-27T22:12:31.497Z,96515.09
2022-09-27T22:15:00.393Z,96524.63
2022-09-27T22:17:29.090Z,96528.72
2022-09-27T22:20:00.030Z,96523.91
2022-09-27T22:22:28.522Z,96525.78
2022-09-27T22:24:57.532Z,96525.66
2022-09-27T22:27:26.069Z,96543.03
2022-09-27T22:29:54.388Z,96541.22
2022-09-27T22:32:22.727Z,96540.69
2022-09-27T22:34:51.310Z,96541.59
2022-09-27T22:37:21.238Z,96530.66
2022-09-27T22:39:49.755Z,96536.94
2022-09-27T22:42:19.063Z,96541.81
2022-09-27T22:44:47.813Z,96526.75
2022-09-27T22:47:17.024Z,96529.38
2022-09-27T22:49:45.130Z,96528.47
2022-09-27T22:52:14.102Z,96516.16
2022-09-27T22:54:44.052Z,96512.84
2022-09-27T22:57:12.556Z,96527.81
2022-09-27T22:59:41.637Z,96533.59
2022-09-27T23:02:10.235Z,96524.44
2022-09-27T23:04:43.112Z,96523.53
2022-09-27T23:07:13.752Z,96520.25
2022-09-27T23:09:50.231Z,96537.94
2022-09-27T23:12:20.980Z,96526.13
2022-09-27T23:14:49.854Z,96522.94
2022-09-27T23:17:20.476Z,96522.84
2022-09-27T23:19:48.931Z,96516.91
2022-09-27T23:22:17.377Z,96509.09
2022-09-27T23:24:48.286Z,96499.19
2022-09-27T23:27:34.203Z,96506.69
2022-09-27T23:30:03.035Z,96497.91
2022-09-27T23:32:32.003Z,96489.47
2022-09-27T23:35:00.567Z,96496.84
2022-09-27T23:37:29.754Z,96509.81
2022-09-27T23:40:00.203Z,96501.19
2022-09-27T23:42:28.843Z,96486.94
2022-09-27T23:44:57.569Z,96480.13
2022-09-27T23:47:25.956Z,96488.59
2022-09-27T23:49:54.350Z,96462.25
2022-09-27T23:52:22.922Z,96461.66
2022-09-27T23:54:51.410Z,96451.06
2022-09-27T23:57:21.497Z,96447.66
2022-09-27T23:59:50.239Z,96446.78
